sensor_id;sensor_type;location;lat;lon;timestamp;P1;durP1;ratioP1;P2;durP2;ratioP2
2610;SDS011;5612;51.134;17.058;2023-02-26T00:01:50;6.07;;;4.87;;
2610;SDS011;5612;51.134;17.058;2023-02-26T00:04:29;5.80;;;5.00;;
2610;SDS011;5612;51.134;17.058;2023-02-26T00:06:58;8.53;;;4.20;;
2610;SDS011;5612;51.134;17.058;2023-02-26T00:09:27;5.30;;;4.00;;
2610;SDS011;5612;51.134;17.058;2023-02-26T00:11:56;4.87;;;4.40;;
2610;SDS011;5612;51.134;17.058;2023-02-26T00:14:26;3.97;;;3.57;;
2610;SDS011;5612;51.134;17.058;2023-02-26T00:16:57;5.67;;;3.97;;
2610;SDS011;5612;51.134;17.058;2023-02-26T00:19:55;7.47;;;4.80;;
2610;SDS011;5612;51.134;17.058;2023-02-26T00:22:24;5.17;;;4.67;;
2610;SDS011;5612;51.134;17.058;2023-02-26T00:24:54;4.27;;;3.90;;
2610;SDS011;5612;51.134;17.058;2023-02-26T00:27:23;6.43;;;4.63;;
2610;SDS011;5612;51.134;17.058;2023-02-26T00:29:52;4.57;;;4.17;;
2610;SDS011;5612;51.134;17.058;2023-02-26T00:32:21;4.50;;;4.10;;
2610;SDS011;5612;51.134;17.058;2023-02-26T00:34:51;5.00;;;4.50;;
2610;SDS011;5612;51.134;17.058;2023-02-26T00:37:29;5.10;;;4.60;;
2610;SDS011;5612;51.134;17.058;2023-02-26T00:40:09;4.80;;;4.40;;
2610;SDS011;5612;51.134;17.058;2023-02-26T00:42:44;4.37;;;4.00;;
2610;SDS011;5612;51.134;17.058;2023-02-26T00:45:14;4.50;;;4.10;;
2610;SDS011;5612;51.134;17.058;2023-02-26T00:47:46;5.63;;;3.90;;
2610;SDS011;5612;51.134;17.058;2023-02-26T00:50:18;4.97;;;3.40;;
2610;SDS011;5612;51.134;17.058;2023-02-26T00:52:55;4.77;;;4.00;;
2610;SDS011;5612;51.134;17.058;2023-02-26T00:55:30;5.27;;;4.27;;
2610;SDS011;5612;51.134;17.058;2023-02-26T00:57:59;3.87;;;3.20;;
2610;SDS011;5612;51.134;17.058;2023-02-26T01:00:28;3.77;;;3.37;;
2610;SDS011;5612;51.134;17.058;2023-02-26T01:02:58;6.03;;;4.57;;
2610;SDS011;5612;51.134;17.058;2023-02-26T01:05:27;4.50;;;4.10;;
2610;SDS011;5612;51.134;17.058;2023-02-26T01:07:58;4.73;;;3.87;;
2610;SDS011;5612;51.134;17.058;2023-02-26T01:10:33;5.07;;;4.00;;
2610;SDS011;5612;51.134;17.058;2023-02-26T01:13:02;7.07;;;4.43;;
2610;SDS011;5612;51.134;17.058;2023-02-26T01:15:32;5.10;;;3.33;;
2610;SDS011;5612;51.134;17.058;2023-02-26T01:18:02;5.77;;;5.20;;
2610;SDS011;5612;51.134;17.058;2023-02-26T01:20:37;7.10;;;4.97;;
2610;SDS011;5612;51.134;17.058;2023-02-26T01:23:14;6.90;;;4.73;;
2610;SDS011;5612;51.134;17.058;2023-02-26T01:25:46;6.40;;;5.50;;
2610;SDS011;5612;51.134;17.058;2023-02-26T01:28:18;8.93;;;7.53;;
2610;SDS011;5612;51.134;17.058;2023-02-26T01:30:47;13.80;;;10.20;;
2610;SDS011;5612;51.134;17.058;2023-02-26T01:33:20;17.27;;;11.80;;
2610;SDS011;5612;51.134;17.058;2023-02-26T01:35:53;13.90;;;10.90;;
2610;SDS011;5612;51.134;17.058;2023-02-26T01:38:28;12.90;;;10.30;;
2610;SDS011;5612;51.134;17.058;2023-02-26T01:41:15;9.23;;;7.13;;
2610;SDS011;5612;51.134;17.058;2023-02-26T01:44:00;8.93;;;6.00;;
2610;SDS011;5612;51.134;17.058;2023-02-26T01:46:38;6.80;;;6.07;;
2610;SDS011;5612;51.134;17.058;2023-02-26T01:49:21;5.07;;;4.27;;
2610;SDS011;5612;51.134;17.058;2023-02-26T01:51:52;4.80;;;3.80;;
2610;SDS011;5612;51.134;17.058;2023-02-26T01:54:27;5.87;;;5.27;;
2610;SDS011;5612;51.134;17.058;2023-02-26T01:56:58;6.97;;;5.90;;
2610;SDS011;5612;51.134;17.058;2023-02-26T01:59:31;5.50;;;5.00;;
2610;SDS011;5612;51.134;17.058;2023-02-26T02:02:06;8.83;;;5.90;;
2610;SDS011;5612;51.134;17.058;2023-02-26T02:04:37;7.13;;;4.90;;
2610;SDS011;5612;51.134;17.058;2023-02-26T02:07:07;5.33;;;4.83;;
2610;SDS011;5612;51.134;17.058;2023-02-26T02:09:38;6.00;;;5.40;;
2610;SDS011;5612;51.134;17.058;2023-02-26T02:12:18;7.53;;;5.80;;
2610;SDS011;5612;51.134;17.058;2023-02-26T02:14:55;6.37;;;5.70;;
2610;SDS011;5612;51.134;17.058;2023-02-26T02:17:34;5.70;;;5.27;;
2610;SDS011;5612;51.134;17.058;2023-02-26T02:20:24;5.87;;;5.10;;
2610;SDS011;5612;51.134;17.058;2023-02-26T02:23:11;6.40;;;5.20;;
2610;SDS011;5612;51.134;17.058;2023-02-26T02:25:52;5.67;;;5.10;;
2610;SDS011;5612;51.134;17.058;2023-02-26T02:28:45;6.93;;;5.80;;
2610;SDS011;5612;51.134;17.058;2023-02-26T02:31:32;6.87;;;6.13;;
2610;SDS011;5612;51.134;17.058;2023-02-26T02:34:05;6.83;;;6.00;;
2610;SDS011;5612;51.134;17.058;2023-02-26T02:36:42;8.23;;;6.50;;
2610;SDS011;5612;51.134;17.058;2023-02-26T02:39:17;5.97;;;5.37;;
2610;SDS011;5612;51.134;17.058;2023-02-26T02:41:51;5.63;;;5.13;;
2610;SDS011;5612;51.134;17.058;2023-02-26T02:44:24;6.07;;;5.07;;
2610;SDS011;5612;51.134;17.058;2023-02-26T02:46:59;6.20;;;5.57;;
2610;SDS011;5612;51.134;17.058;2023-02-26T02:49:30;6.33;;;5.43;;
2610;SDS011;5612;51.134;17.058;2023-02-26T02:52:05;5.30;;;4.90;;
2610;SDS011;5612;51.134;17.058;2023-02-26T02:54:39;6.10;;;5.60;;
2610;SDS011;5612;51.134;17.058;2023-02-26T02:57:14;5.67;;;5.00;;
2610;SDS011;5612;51.134;17.058;2023-02-26T02:59:47;4.87;;;4.33;;
2610;SDS011;5612;51.134;17.058;2023-02-26T03:02:20;4.53;;;3.63;;
2610;SDS011;5612;51.134;17.058;2023-02-26T03:04:53;4.83;;;4.43;;
2610;SDS011;5612;51.134;17.058;2023-02-26T03:07:22;4.80;;;4.33;;
2610;SDS011;5612;51.134;17.058;2023-02-26T03:09:52;3.80;;;3.50;;
2610;SDS011;5612;51.134;17.058;2023-02-26T03:12:21;5.40;;;4.00;;
2610;SDS011;5612;51.134;17.058;2023-02-26T03:14:52;4.43;;;4.03;;
2610;SDS011;5612;51.134;17.058;2023-02-26T03:17:23;3.93;;;3.63;;
2610;SDS011;5612;51.134;17.058;2023-02-26T03:20:02;4.20;;;3.53;;
2610;SDS011;5612;51.134;17.058;2023-02-26T03:22:42;4.83;;;4.40;;
2610;SDS011;5612;51.134;17.058;2023-02-26T03:25:20;3.80;;;3.47;;
2610;SDS011;5612;51.134;17.058;2023-02-26T03:27:54;2.70;;;2.50;;
2610;SDS011;5612;51.134;17.058;2023-02-26T03:30:31;3.77;;;3.47;;
2610;SDS011;5612;51.134;17.058;2023-02-26T03:33:08;3.77;;;3.47;;
2610;SDS011;5612;51.134;17.058;2023-02-26T03:35:43;3.60;;;3.30;;
2610;SDS011;5612;51.134;17.058;2023-02-26T03:38:18;3.17;;;2.67;;
2610;SDS011;5612;51.134;17.058;2023-02-26T03:40:53;4.20;;;3.30;;
2610;SDS011;5612;51.134;17.058;2023-02-26T03:43:27;3.50;;;3.20;;
2610;SDS011;5612;51.134;17.058;2023-02-26T03:46:01;3.17;;;2.97;;
2610;SDS011;5612;51.134;17.058;2023-02-26T03:48:35;3.57;;;3.37;;
2610;SDS011;5612;51.134;17.058;2023-02-26T03:51:05;3.43;;;2.97;;
2610;SDS011;5612;51.134;17.058;2023-02-26T03:53:37;4.13;;;3.73;;
2610;SDS011;5612;51.134;17.058;2023-02-26T03:56:12;3.10;;;2.90;;
2610;SDS011;5612;51.134;17.058;2023-02-26T03:58:44;3.17;;;2.70;;
2610;SDS011;5612;51.134;17.058;2023-02-26T04:01:14;4.23;;;2.97;;
2610;SDS011;5612;51.134;17.058;2023-02-26T04:03:51;3.63;;;2.50;;
2610;SDS011;5612;51.134;17.058;2023-02-26T04:06:30;3.50;;;3.20;;
2610;SDS011;5612;51.134;17.058;2023-02-26T04:09:01;2.97;;;2.70;;
2610;SDS011;5612;51.134;17.058;2023-02-26T04:11:31;3.07;;;2.40;;
2610;SDS011;5612;51.134;17.058;2023-02-26T04:14:01;5.67;;;3.63;;
2610;SDS011;5612;51.134;17.058;2023-02-26T04:16:30;4.07;;;3.73;;
2610;SDS011;5612;51.134;17.058;2023-02-26T04:19:00;2.87;;;2.77;;
2610;SDS011;5612;51.134;17.058;2023-02-26T04:21:29;3.33;;;3.03;;
2610;SDS011;5612;51.134;17.058;2023-02-26T04:23:58;2.53;;;2.33;;
2610;SDS011;5612;51.134;17.058;2023-02-26T04:26:26;3.47;;;3.23;;
2610;SDS011;5612;51.134;17.058;2023-02-26T04:28:55;2.57;;;2.37;;
2610;SDS011;5612;51.134;17.058;2023-02-26T04:31:24;2.77;;;2.60;;
2610;SDS011;5612;51.134;17.058;2023-02-26T04:33:53;3.27;;;3.00;;
2610;SDS011;5612;51.134;17.058;2023-02-26T04:36:24;3.17;;;2.97;;
2610;SDS011;5612;51.134;17.058;2023-02-26T04:38:53;3.30;;;3.10;;
2610;SDS011;5612;51.134;17.058;2023-02-26T04:41:22;3.13;;;2.83;;
2610;SDS011;5612;51.134;17.058;2023-02-26T04:43:51;3.67;;;2.60;;
2610;SDS011;5612;51.134;17.058;2023-02-26T04:46:20;3.00;;;2.77;;
2610;SDS011;5612;51.134;17.058;2023-02-26T04:48:50;2.53;;;2.43;;
2610;SDS011;5612;51.134;17.058;2023-02-26T04:51:19;3.10;;;2.90;;
2610;SDS011;5612;51.134;17.058;2023-02-26T04:53:49;4.03;;;2.63;;
2610;SDS011;5612;51.134;17.058;2023-02-26T04:56:18;3.70;;;3.00;;
2610;SDS011;5612;51.134;17.058;2023-02-26T04:58:47;4.03;;;3.40;;
2610;SDS011;5612;51.134;17.058;2023-02-26T05:01:16;2.77;;;2.57;;
2610;SDS011;5612;51.134;17.058;2023-02-26T05:03:45;2.70;;;2.50;;
2610;SDS011;5612;51.134;17.058;2023-02-26T05:06:14;2.97;;;2.77;;
2610;SDS011;5612;51.134;17.058;2023-02-26T05:08:43;3.43;;;3.10;;
2610;SDS011;5612;51.134;17.058;2023-02-26T05:11:13;2.50;;;2.40;;
2610;SDS011;5612;51.134;17.058;2023-02-26T05:13:42;2.60;;;2.40;;
2610;SDS011;5612;51.134;17.058;2023-02-26T05:16:11;6.33;;;2.13;;
2610;SDS011;5612;51.134;17.058;2023-02-26T05:18:40;2.93;;;2.63;;
2610;SDS011;5612;51.134;17.058;2023-02-26T05:21:09;2.70;;;2.50;;
2610;SDS011;5612;51.134;17.058;2023-02-26T05:23:38;3.63;;;2.50;;
2610;SDS011;5612;51.134;17.058;2023-02-26T05:26:07;2.13;;;2.00;;
2610;SDS011;5612;51.134;17.058;2023-02-26T05:28:37;2.13;;;2.03;;
2610;SDS011;5612;51.134;17.058;2023-02-26T05:31:06;2.93;;;2.50;;
2610;SDS011;5612;51.134;17.058;2023-02-26T05:33:35;5.53;;;2.87;;
2610;SDS011;5612;51.134;17.058;2023-02-26T05:36:04;2.70;;;2.50;;
2610;SDS011;5612;51.134;17.058;2023-02-26T05:38:33;2.87;;;2.30;;
2610;SDS011;5612;51.134;17.058;2023-02-26T05:41:02;3.03;;;2.77;;
2610;SDS011;5612;51.134;17.058;2023-02-26T05:43:32;2.60;;;2.40;;
2610;SDS011;5612;51.134;17.058;2023-02-26T05:46:03;2.80;;;2.60;;
2610;SDS011;5612;51.134;17.058;2023-02-26T05:48:33;3.17;;;2.93;;
2610;SDS011;5612;51.134;17.058;2023-02-26T05:51:02;3.00;;;2.80;;
2610;SDS011;5612;51.134;17.058;2023-02-26T05:53:31;3.07;;;2.80;;
2610;SDS011;5612;51.134;17.058;2023-02-26T05:56:00;3.53;;;2.60;;
2610;SDS011;5612;51.134;17.058;2023-02-26T05:58:29;3.73;;;3.43;;
2610;SDS011;5612;51.134;17.058;2023-02-26T06:00:59;7.43;;;4.30;;
2610;SDS011;5612;51.134;17.058;2023-02-26T06:03:30;7.17;;;4.90;;
2610;SDS011;5612;51.134;17.058;2023-02-26T06:05:59;14.30;;;9.43;;
2610;SDS011;5612;51.134;17.058;2023-02-26T06:08:27;27.33;;;16.53;;
2610;SDS011;5612;51.134;17.058;2023-02-26T06:10:56;9.97;;;7.37;;
2610;SDS011;5612;51.134;17.058;2023-02-26T06:13:25;21.70;;;13.43;;
2610;SDS011;5612;51.134;17.058;2023-02-26T06:15:54;7.57;;;6.40;;
2610;SDS011;5612;51.134;17.058;2023-02-26T06:18:23;5.37;;;4.73;;
2610;SDS011;5612;51.134;17.058;2023-02-26T06:20:54;3.70;;;3.40;;
2610;SDS011;5612;51.134;17.058;2023-02-26T06:23:22;5.50;;;3.00;;
2610;SDS011;5612;51.134;17.058;2023-02-26T06:25:52;6.40;;;3.90;;
2610;SDS011;5612;51.134;17.058;2023-02-26T06:28:22;4.50;;;3.67;;
2610;SDS011;5612;51.134;17.058;2023-02-26T06:30:51;4.40;;;3.83;;
2610;SDS011;5612;51.134;17.058;2023-02-26T06:33:21;2.77;;;2.57;;
2610;SDS011;5612;51.134;17.058;2023-02-26T06:35:51;2.60;;;2.40;;
2610;SDS011;5612;51.134;17.058;2023-02-26T06:38:21;2.97;;;2.67;;
2610;SDS011;5612;51.134;17.058;2023-02-26T06:40:50;3.03;;;2.83;;
2610;SDS011;5612;51.134;17.058;2023-02-26T06:43:19;3.60;;;3.30;;
2610;SDS011;5612;51.134;17.058;2023-02-26T06:45:48;4.00;;;3.17;;
2610;SDS011;5612;51.134;17.058;2023-02-26T06:48:17;3.33;;;3.03;;
2610;SDS011;5612;51.134;17.058;2023-02-26T06:50:46;2.87;;;2.67;;
2610;SDS011;5612;51.134;17.058;2023-02-26T06:53:15;3.47;;;3.17;;
2610;SDS011;5612;51.134;17.058;2023-02-26T06:55:46;2.80;;;2.60;;
2610;SDS011;5612;51.134;17.058;2023-02-26T06:58:17;2.00;;;1.90;;
2610;SDS011;5612;51.134;17.058;2023-02-26T07:00:46;3.60;;;3.30;;
2610;SDS011;5612;51.134;17.058;2023-02-26T07:03:15;3.77;;;2.80;;
2610;SDS011;5612;51.134;17.058;2023-02-26T07:05:45;2.90;;;2.70;;
2610;SDS011;5612;51.134;17.058;2023-02-26T07:08:14;3.83;;;3.40;;
2610;SDS011;5612;51.134;17.058;2023-02-26T07:10:43;4.60;;;3.20;;
2610;SDS011;5612;51.134;17.058;2023-02-26T07:13:16;3.30;;;3.00;;
2610;SDS011;5612;51.134;17.058;2023-02-26T07:15:45;5.20;;;3.63;;
2610;SDS011;5612;51.134;17.058;2023-02-26T07:18:14;3.10;;;2.80;;
2610;SDS011;5612;51.134;17.058;2023-02-26T07:20:43;3.93;;;3.43;;
2610;SDS011;5612;51.134;17.058;2023-02-26T07:23:12;3.60;;;2.90;;
2610;SDS011;5612;51.134;17.058;2023-02-26T07:25:41;3.37;;;3.07;;
2610;SDS011;5612;51.134;17.058;2023-02-26T07:28:10;4.50;;;3.50;;
2610;SDS011;5612;51.134;17.058;2023-02-26T07:30:40;5.30;;;4.00;;
2610;SDS011;5612;51.134;17.058;2023-02-26T07:33:09;7.67;;;4.20;;
2610;SDS011;5612;51.134;17.058;2023-02-26T07:35:39;6.03;;;4.73;;
2610;SDS011;5612;51.134;17.058;2023-02-26T07:38:08;3.70;;;3.40;;
2610;SDS011;5612;51.134;17.058;2023-02-26T07:40:37;4.77;;;4.37;;
2610;SDS011;5612;51.134;17.058;2023-02-26T07:43:05;5.33;;;4.90;;
2610;SDS011;5612;51.134;17.058;2023-02-26T07:45:34;5.73;;;4.00;;
2610;SDS011;5612;51.134;17.058;2023-02-26T07:48:04;3.97;;;3.60;;
2610;SDS011;5612;51.134;17.058;2023-02-26T07:50:33;4.93;;;3.73;;
2610;SDS011;5612;51.134;17.058;2023-02-26T07:53:02;6.10;;;3.60;;
2610;SDS011;5612;51.134;17.058;2023-02-26T07:55:31;6.30;;;4.27;;
2610;SDS011;5612;51.134;17.058;2023-02-26T07:58:00;3.73;;;3.43;;
2610;SDS011;5612;51.134;17.058;2023-02-26T08:00:29;5.40;;;4.13;;
2610;SDS011;5612;51.134;17.058;2023-02-26T08:02:58;6.90;;;4.37;;
2610;SDS011;5612;51.134;17.058;2023-02-26T08:05:29;4.90;;;4.40;;
2610;SDS011;5612;51.134;17.058;2023-02-26T08:07:57;5.77;;;4.07;;
2610;SDS011;5612;51.134;17.058;2023-02-26T08:10:27;6.90;;;4.17;;
2610;SDS011;5612;51.134;17.058;2023-02-26T08:12:56;6.20;;;4.40;;
2610;SDS011;5612;51.134;17.058;2023-02-26T08:15:25;3.77;;;3.40;;
2610;SDS011;5612;51.134;17.058;2023-02-26T08:17:54;6.10;;;4.03;;
2610;SDS011;5612;51.134;17.058;2023-02-26T08:20:23;4.20;;;3.90;;
2610;SDS011;5612;51.134;17.058;2023-02-26T08:22:54;4.67;;;3.50;;
2610;SDS011;5612;51.134;17.058;2023-02-26T08:25:22;4.70;;;4.20;;
2610;SDS011;5612;51.134;17.058;2023-02-26T08:27:51;9.53;;;5.50;;
2610;SDS011;5612;51.134;17.058;2023-02-26T08:30:20;8.33;;;5.70;;
2610;SDS011;5612;51.134;17.058;2023-02-26T08:32:49;7.00;;;5.87;;
2610;SDS011;5612;51.134;17.058;2023-02-26T08:35:21;6.67;;;5.33;;
2610;SDS011;5612;51.134;17.058;2023-02-26T08:37:51;4.43;;;4.00;;
2610;SDS011;5612;51.134;17.058;2023-02-26T08:40:21;4.77;;;4.20;;
2610;SDS011;5612;51.134;17.058;2023-02-26T08:42:50;7.70;;;5.57;;
2610;SDS011;5612;51.134;17.058;2023-02-26T08:45:19;4.50;;;4.07;;
2610;SDS011;5612;51.134;17.058;2023-02-26T08:47:48;3.33;;;3.00;;
2610;SDS011;5612;51.134;17.058;2023-02-26T08:50:23;4.20;;;3.27;;
2610;SDS011;5612;51.134;17.058;2023-02-26T08:52:53;3.00;;;2.80;;
2610;SDS011;5612;51.134;17.058;2023-02-26T08:55:22;4.93;;;3.30;;
2610;SDS011;5612;51.134;17.058;2023-02-26T08:57:51;4.03;;;3.73;;
2610;SDS011;5612;51.134;17.058;2023-02-26T09:00:20;4.03;;;3.73;;
2610;SDS011;5612;51.134;17.058;2023-02-26T09:02:49;4.63;;;4.13;;
2610;SDS011;5612;51.134;17.058;2023-02-26T09:05:18;5.33;;;3.90;;
2610;SDS011;5612;51.134;17.058;2023-02-26T09:07:47;7.10;;;3.97;;
2610;SDS011;5612;51.134;17.058;2023-02-26T09:10:17;3.80;;;3.50;;
2610;SDS011;5612;51.134;17.058;2023-02-26T09:12:46;3.77;;;3.47;;
2610;SDS011;5612;51.134;17.058;2023-02-26T09:15:15;3.50;;;3.20;;
2610;SDS011;5612;51.134;17.058;2023-02-26T09:17:45;4.73;;;3.53;;
2610;SDS011;5612;51.134;17.058;2023-02-26T09:20:14;5.07;;;4.57;;
2610;SDS011;5612;51.134;17.058;2023-02-26T09:22:44;4.30;;;4.00;;
2610;SDS011;5612;51.134;17.058;2023-02-26T09:25:13;3.63;;;3.33;;
2610;SDS011;5612;51.134;17.058;2023-02-26T09:27:43;3.87;;;3.50;;
2610;SDS011;5612;51.134;17.058;2023-02-26T09:30:12;5.97;;;3.13;;
2610;SDS011;5612;51.134;17.058;2023-02-26T09:32:41;3.80;;;3.50;;
2610;SDS011;5612;51.134;17.058;2023-02-26T09:35:10;3.63;;;3.03;;
2610;SDS011;5612;51.134;17.058;2023-02-26T09:37:39;5.10;;;4.43;;
2610;SDS011;5612;51.134;17.058;2023-02-26T09:40:09;4.30;;;3.60;;
2610;SDS011;5612;51.134;17.058;2023-02-26T09:42:53;4.33;;;4.03;;
2610;SDS011;5612;51.134;17.058;2023-02-26T09:45:34;4.00;;;3.60;;
2610;SDS011;5612;51.134;17.058;2023-02-26T09:48:08;5.30;;;4.80;;
2610;SDS011;5612;51.134;17.058;2023-02-26T09:50:41;4.73;;;4.17;;
2610;SDS011;5612;51.134;17.058;2023-02-26T09:53:15;7.40;;;4.10;;
2610;SDS011;5612;51.134;17.058;2023-02-26T09:55:47;7.83;;;6.50;;
2610;SDS011;5612;51.134;17.058;2023-02-26T09:58:20;4.80;;;3.60;;
2610;SDS011;5612;51.134;17.058;2023-02-26T10:00:55;4.37;;;3.90;;
2610;SDS011;5612;51.134;17.058;2023-02-26T10:03:32;3.70;;;3.37;;
2610;SDS011;5612;51.134;17.058;2023-02-26T10:06:20;6.23;;;5.63;;
2610;SDS011;5612;51.134;17.058;2023-02-26T10:08:57;5.17;;;3.97;;
2610;SDS011;5612;51.134;17.058;2023-02-26T10:11:39;6.83;;;6.13;;
2610;SDS011;5612;51.134;17.058;2023-02-26T10:14:17;4.83;;;4.30;;
2610;SDS011;5612;51.134;17.058;2023-02-26T10:16:52;5.90;;;5.03;;
2610;SDS011;5612;51.134;17.058;2023-02-26T10:19:25;4.40;;;4.00;;
2610;SDS011;5612;51.134;17.058;2023-02-26T10:21:59;3.20;;;3.00;;
2610;SDS011;5612;51.134;17.058;2023-02-26T10:24:36;4.27;;;3.90;;
2610;SDS011;5612;51.134;17.058;2023-02-26T10:27:10;6.40;;;4.90;;
2610;SDS011;5612;51.134;17.058;2023-02-26T10:29:50;4.17;;;3.87;;
2610;SDS011;5612;51.134;17.058;2023-02-26T10:32:27;5.43;;;4.80;;
2610;SDS011;5612;51.134;17.058;2023-02-26T10:35:02;3.27;;;3.07;;
2610;SDS011;5612;51.134;17.058;2023-02-26T10:37:38;3.30;;;3.00;;
2610;SDS011;5612;51.134;17.058;2023-02-26T10:40:16;3.90;;;3.50;;
2610;SDS011;5612;51.134;17.058;2023-02-26T10:42:51;3.43;;;3.13;;
2610;SDS011;5612;51.134;17.058;2023-02-26T10:45:39;4.90;;;4.50;;
2610;SDS011;5612;51.134;17.058;2023-02-26T10:48:24;4.40;;;4.10;;
2610;SDS011;5612;51.134;17.058;2023-02-26T10:51:11;9.53;;;5.37;;
2610;SDS011;5612;51.134;17.058;2023-02-26T10:53:41;4.60;;;4.20;;
2610;SDS011;5612;51.134;17.058;2023-02-26T10:56:14;16.53;;;8.67;;
2610;SDS011;5612;51.134;17.058;2023-02-26T10:58:47;15.93;;;9.23;;
2610;SDS011;5612;51.134;17.058;2023-02-26T11:01:20;5.00;;;4.20;;
2610;SDS011;5612;51.134;17.058;2023-02-26T11:03:53;5.53;;;4.83;;
2610;SDS011;5612;51.134;17.058;2023-02-26T11:06:29;6.47;;;4.63;;
2610;SDS011;5612;51.134;17.058;2023-02-26T11:09:00;6.20;;;4.07;;
2610;SDS011;5612;51.134;17.058;2023-02-26T11:11:38;4.77;;;3.90;;
2610;SDS011;5612;51.134;17.058;2023-02-26T11:14:11;4.03;;;3.63;;
2610;SDS011;5612;51.134;17.058;2023-02-26T11:16:47;3.60;;;3.30;;
2610;SDS011;5612;51.134;17.058;2023-02-26T11:19:19;3.37;;;3.17;;
2610;SDS011;5612;51.134;17.058;2023-02-26T11:21:55;4.87;;;4.37;;
2610;SDS011;5612;51.134;17.058;2023-02-26T11:24:28;4.03;;;3.70;;
2610;SDS011;5612;51.134;17.058;2023-02-26T11:27:02;4.37;;;3.30;;
2610;SDS011;5612;51.134;17.058;2023-02-26T11:29:34;5.00;;;4.60;;
2610;SDS011;5612;51.134;17.058;2023-02-26T11:32:11;6.53;;;5.93;;
2610;SDS011;5612;51.134;17.058;2023-02-26T11:34:48;5.10;;;4.63;;
2610;SDS011;5612;51.134;17.058;2023-02-26T11:37:20;5.10;;;4.70;;
2610;SDS011;5612;51.134;17.058;2023-02-26T11:39:54;4.80;;;4.40;;
2610;SDS011;5612;51.134;17.058;2023-02-26T11:42:26;4.67;;;4.27;;
2610;SDS011;5612;51.134;17.058;2023-02-26T11:44:55;6.20;;;5.70;;
2610;SDS011;5612;51.134;17.058;2023-02-26T11:47:28;7.80;;;6.50;;
2610;SDS011;5612;51.134;17.058;2023-02-26T11:49:59;4.07;;;3.57;;
2610;SDS011;5612;51.134;17.058;2023-02-26T11:52:32;4.93;;;4.53;;
2610;SDS011;5612;51.134;17.058;2023-02-26T11:55:04;4.40;;;4.10;;
2610;SDS011;5612;51.134;17.058;2023-02-26T11:57:46;6.13;;;5.53;;
2610;SDS011;5612;51.134;17.058;2023-02-26T12:00:23;5.97;;;4.43;;
2610;SDS011;5612;51.134;17.058;2023-02-26T12:03:00;4.70;;;4.30;;
2610;SDS011;5612;51.134;17.058;2023-02-26T12:05:30;4.67;;;4.07;;
2610;SDS011;5612;51.134;17.058;2023-02-26T12:07:59;5.83;;;5.33;;
2610;SDS011;5612;51.134;17.058;2023-02-26T12:10:33;7.57;;;6.87;;
2610;SDS011;5612;51.134;17.058;2023-02-26T12:13:08;7.80;;;7.03;;
2610;SDS011;5612;51.134;17.058;2023-02-26T12:15:49;6.70;;;6.20;;
2610;SDS011;5612;51.134;17.058;2023-02-26T12:18:34;7.70;;;6.67;;
2610;SDS011;5612;51.134;17.058;2023-02-26T12:21:23;8.60;;;7.90;;
2610;SDS011;5612;51.134;17.058;2023-02-26T12:27:15;8.20;;;7.00;;
2610;SDS011;5612;51.134;17.058;2023-02-26T12:30:07;9.10;;;8.30;;
2610;SDS011;5612;51.134;17.058;2023-02-26T12:32:57;5.97;;;5.30;;
2610;SDS011;5612;51.134;17.058;2023-02-26T12:35:43;4.47;;;4.17;;
2610;SDS011;5612;51.134;17.058;2023-02-26T12:38:23;7.60;;;6.83;;
2610;SDS011;5612;51.134;17.058;2023-02-26T12:44:02;5.17;;;4.77;;
2610;SDS011;5612;51.134;17.058;2023-02-26T12:47:03;7.33;;;5.00;;
2610;SDS011;5612;51.134;17.058;2023-02-26T12:49:52;4.93;;;4.37;;
2610;SDS011;5612;51.134;17.058;2023-02-26T12:52:57;4.80;;;4.30;;
2610;SDS011;5612;51.134;17.058;2023-02-26T12:55:45;5.07;;;4.40;;
2610;SDS011;5612;51.134;17.058;2023-02-26T12:58:34;4.97;;;4.40;;
2610;SDS011;5612;51.134;17.058;2023-02-26T13:01:14;5.70;;;5.20;;
2610;SDS011;5612;51.134;17.058;2023-02-26T13:04:06;6.70;;;5.13;;
2610;SDS011;5612;51.134;17.058;2023-02-26T13:07:12;4.70;;;4.30;;
2610;SDS011;5612;51.134;17.058;2023-02-26T13:10:02;6.40;;;4.20;;
2610;SDS011;5612;51.134;17.058;2023-02-26T13:12:43;4.30;;;4.00;;
2610;SDS011;5612;51.134;17.058;2023-02-26T13:15:32;6.97;;;4.50;;
2610;SDS011;5612;51.134;17.058;2023-02-26T13:18:16;4.17;;;3.40;;
2610;SDS011;5612;51.134;17.058;2023-02-26T13:20:54;2.90;;;2.00;;
2610;SDS011;5612;51.134;17.058;2023-02-26T13:23:29;3.60;;;2.40;;
2610;SDS011;5612;51.134;17.058;2023-02-26T13:26:05;3.87;;;3.43;;
2610;SDS011;5612;51.134;17.058;2023-02-26T13:28:39;6.20;;;4.83;;
2610;SDS011;5612;51.134;17.058;2023-02-26T13:31:12;4.83;;;3.10;;
2610;SDS011;5612;51.134;17.058;2023-02-26T13:33:47;5.10;;;4.37;;
2610;SDS011;5612;51.134;17.058;2023-02-26T13:36:19;4.23;;;3.83;;
2610;SDS011;5612;51.134;17.058;2023-02-26T13:38:56;6.27;;;3.67;;
2610;SDS011;5612;51.134;17.058;2023-02-26T13:41:43;6.27;;;4.50;;
2610;SDS011;5612;51.134;17.058;2023-02-26T13:44:27;5.70;;;4.30;;
2610;SDS011;5612;51.134;17.058;2023-02-26T13:47:11;3.03;;;2.83;;
2610;SDS011;5612;51.134;17.058;2023-02-26T13:50:00;2.77;;;2.20;;
2610;SDS011;5612;51.134;17.058;2023-02-26T13:52:49;3.77;;;2.57;;
2610;SDS011;5612;51.134;17.058;2023-02-26T13:55:37;3.00;;;2.73;;
2610;SDS011;5612;51.134;17.058;2023-02-26T13:58:24;3.43;;;3.13;;
2610;SDS011;5612;51.134;17.058;2023-02-26T14:01:09;3.63;;;3.33;;
2610;SDS011;5612;51.134;17.058;2023-02-26T14:03:45;2.83;;;2.60;;
2610;SDS011;5612;51.134;17.058;2023-02-26T14:06:22;7.80;;;7.20;;
2610;SDS011;5612;51.134;17.058;2023-02-26T14:09:28;3.17;;;2.43;;
2610;SDS011;5612;51.134;17.058;2023-02-26T14:12:22;2.90;;;2.60;;
2610;SDS011;5612;51.134;17.058;2023-02-26T14:15:30;3.03;;;2.83;;
2610;SDS011;5612;51.134;17.058;2023-02-26T14:18:23;3.20;;;3.00;;
2610;SDS011;5612;51.134;17.058;2023-02-26T14:24:21;5.77;;;5.37;;
2610;SDS011;5612;51.134;17.058;2023-02-26T14:27:07;3.30;;;2.77;;
2610;SDS011;5612;51.134;17.058;2023-02-26T14:29:59;4.27;;;3.30;;
2610;SDS011;5612;51.134;17.058;2023-02-26T14:32:44;5.27;;;4.83;;
2610;SDS011;5612;51.134;17.058;2023-02-26T14:35:18;4.63;;;4.07;;
2610;SDS011;5612;51.134;17.058;2023-02-26T14:37:55;4.10;;;3.43;;
2610;SDS011;5612;51.134;17.058;2023-02-26T14:40:31;6.83;;;4.20;;
2610;SDS011;5612;51.134;17.058;2023-02-26T14:43:15;3.67;;;3.30;;
2610;SDS011;5612;51.134;17.058;2023-02-26T14:45:54;5.67;;;5.13;;
2610;SDS011;5612;51.134;17.058;2023-02-26T14:48:36;6.07;;;5.07;;
2610;SDS011;5612;51.134;17.058;2023-02-26T14:51:13;6.10;;;5.10;;
2610;SDS011;5612;51.134;17.058;2023-02-26T14:54:00;5.97;;;5.30;;
2610;SDS011;5612;51.134;17.058;2023-02-26T14:56:58;4.27;;;3.87;;
2610;SDS011;5612;51.134;17.058;2023-02-26T14:59:39;4.67;;;4.00;;
2610;SDS011;5612;51.134;17.058;2023-02-26T15:02:27;4.83;;;4.43;;
2610;SDS011;5612;51.134;17.058;2023-02-26T15:05:13;7.40;;;4.50;;
2610;SDS011;5612;51.134;17.058;2023-02-26T15:08:06;5.93;;;4.80;;
2610;SDS011;5612;51.134;17.058;2023-02-26T15:10:49;6.97;;;4.53;;
2610;SDS011;5612;51.134;17.058;2023-02-26T15:13:38;4.70;;;4.30;;
2610;SDS011;5612;51.134;17.058;2023-02-26T15:16:24;5.63;;;4.57;;
2610;SDS011;5612;51.134;17.058;2023-02-26T15:19:12;5.50;;;4.53;;
2610;SDS011;5612;51.134;17.058;2023-02-26T15:21:56;7.77;;;4.30;;
2610;SDS011;5612;51.134;17.058;2023-02-26T15:24:41;6.70;;;4.90;;
2610;SDS011;5612;51.134;17.058;2023-02-26T15:27:14;6.63;;;4.50;;
2610;SDS011;5612;51.134;17.058;2023-02-26T15:29:47;6.00;;;4.93;;
2610;SDS011;5612;51.134;17.058;2023-02-26T15:32:25;5.10;;;4.07;;
2610;SDS011;5612;51.134;17.058;2023-02-26T15:34:58;3.80;;;3.30;;
2610;SDS011;5612;51.134;17.058;2023-02-26T15:37:37;3.90;;;3.10;;
2610;SDS011;5612;51.134;17.058;2023-02-26T15:40:08;4.17;;;3.77;;
2610;SDS011;5612;51.134;17.058;2023-02-26T15:42:43;8.57;;;5.03;;
2610;SDS011;5612;51.134;17.058;2023-02-26T15:45:19;5.57;;;4.90;;
2610;SDS011;5612;51.134;17.058;2023-02-26T15:47:53;4.87;;;4.47;;
2610;SDS011;5612;51.134;17.058;2023-02-26T15:50:26;6.17;;;5.57;;
2610;SDS011;5612;51.134;17.058;2023-02-26T15:53:02;4.80;;;4.40;;
2610;SDS011;5612;51.134;17.058;2023-02-26T15:55:36;12.50;;;9.47;;